Terminal Aerodrome Forecast
Issued by NWS

Home | Current Version | Previous Version | Text Only | Print | Product List | Glossary On
Versions: 1 2 3 4 5 6 7 8 9 10 11 12
214
FTUS46 KLOX 251141
TAFVNY
TAF
KVNY 251141Z 2512/2612 VRB03KT P6SM SKC
     FM251900 17007KT P6SM SKC
     FM252300 12008KT P6SM SKC
     FM260400 VRB03KT P6SM SKC
     FM260900 VRB03KT P6SM BKN007=

USA.gov is the U.S. government's official web portal to all federal, state and local government web resources and services.